Startpagina
METAR-TAF:

METAR-TAF

Vliegvelden :

Spaa

Tomaszów Mazowiecki, Polen

breedte: 51-35-04N, lengte: 020-05-52E, hoogte: 174 m

METAR: ontbreekt

Tijdstip: 02:07 (00:07 UTC)

Verwachting

Dit bericht is 4 uur en het 7 minuten geleden gemaakt, om 20:00 UTC
Verwachting geldig van 31 om 21 UTC tot 01 om 06 UTC
Wind 6 kt uit het noordnoordwesten
Zicht 10 km of meer
geen wolken onder 1500 m en geen cumulonimbus

TAF: EPTM 312000Z 3121/0106 33006KT CAVOK

Waarnemingen en weersverwachtingen van meer dan 4000 vliegvelden (METAR en TAF).

De beschikbare stations zijn de gele en rode punten op de kaart.

Ga met uw muis naar het station om de naam te zien.

Klik dan om waarnemingen en weersverwachtingen te zien.

kaart wijzigen: klik op de groene knoppen met een zwart kruis om in te zoomen, op de groene knop met een streepje om uit te zoomen of op de groene pijlen voor aangrenzende kaarten.


METAR-TAF: